BGA weather

Palonegro Airport
Bucaramanga, Santander Department, Colombia

Public forecast

Using degrees Celsius for public forecast. Weather courtesy of forecast.io.

METAR (pilot weather report)

Retrieved 2019/02/16 13:00 UTC (2 minutes ago):

SKBG 161300Z 31004KT 5000 HZ SCT007 23/21 A3003

TAF (pilot weather forecast)

Forecast is more than 12 hours old.

Retrieved 2019/02/08 06:12 UTC (8 days ago):

TAF TAF SKBG 080500Z 0806/0906 VRB02KT 9999 SCT010 SCT080 0809/0815 4000 BCFG BKN005 BECMG 0815/0817 32008KT SCT017 SCT080 TX28/0819Z TN19/0811Z